sensor_id;sensor_type;location;lat;lon;timestamp;pressure;altitude;pressure_sealevel;temperature
73673;BMP280;61972;19.480;-99.240;2023-08-30T00:00:55;77497.88;;;32.48
73673;BMP280;61972;19.480;-99.240;2023-08-30T00:03:22;77498.44;;;32.48
73673;BMP280;61972;19.480;-99.240;2023-08-30T00:05:48;77499.41;;;32.47
73673;BMP280;61972;19.480;-99.240;2023-08-30T00:08:14;77503.72;;;32.48
73673;BMP280;61972;19.480;-99.240;2023-08-30T00:10:48;77509.56;;;32.49
73673;BMP280;61972;19.480;-99.240;2023-08-30T00:13:14;77505.91;;;32.51
73673;BMP280;61972;19.480;-99.240;2023-08-30T00:15:40;77512.84;;;32.52
73673;BMP280;61972;19.480;-99.240;2023-08-30T00:18:06;77510.19;;;32.52
73673;BMP280;61972;19.480;-99.240;2023-08-30T00:20:32;77524.44;;;32.51
73673;BMP280;61972;19.480;-99.240;2023-08-30T00:22:59;77518.56;;;32.50
73673;BMP280;61972;19.480;-99.240;2023-08-30T00:25:25;77521.13;;;32.47
73673;BMP280;61972;19.480;-99.240;2023-08-30T00:27:51;77528.97;;;32.45
73673;BMP280;61972;19.480;-99.240;2023-08-30T00:30:17;77536.25;;;32.42
73673;BMP280;61972;19.480;-99.240;2023-08-30T00:32:44;77536.69;;;32.40
73673;BMP280;61972;19.480;-99.240;2023-08-30T00:35:10;77545.53;;;32.36
73673;BMP280;61972;19.480;-99.240;2023-08-30T00:37:36;77550.16;;;32.33
73673;BMP280;61972;19.480;-99.240;2023-08-30T00:40:02;77552.72;;;32.30
73673;BMP280;61972;19.480;-99.240;2023-08-30T00:42:28;77551.50;;;32.26
73673;BMP280;61972;19.480;-99.240;2023-08-30T00:44:55;77557.78;;;32.25
73673;BMP280;61972;19.480;-99.240;2023-08-30T00:47:21;77563.53;;;32.23
73673;BMP280;61972;19.480;-99.240;2023-08-30T00:49:47;77562.31;;;32.19
73673;BMP280;61972;19.480;-99.240;2023-08-30T00:52:14;77573.91;;;32.18
73673;BMP280;61972;19.480;-99.240;2023-08-30T00:54:40;77569.06;;;32.16
73673;BMP280;61972;19.480;-99.240;2023-08-30T00:57:07;77588.56;;;32.14
73673;BMP280;61972;19.480;-99.240;2023-08-30T00:59:34;77586.34;;;32.12
73673;BMP280;61972;19.480;-99.240;2023-08-30T01:02:01;77588.34;;;32.09
73673;BMP280;61972;19.480;-99.240;2023-08-30T01:04:27;77602.03;;;32.07
73673;BMP280;61972;19.480;-99.240;2023-08-30T01:06:54;77605.09;;;32.05
73673;BMP280;61972;19.480;-99.240;2023-08-30T01:09:20;77596.50;;;32.02
73673;BMP280;61972;19.480;-99.240;2023-08-30T01:12:29;77599.03;;;31.99
73673;BMP280;61972;19.480;-99.240;2023-08-30T01:15:22;77611.16;;;31.98
73673;BMP280;61972;19.480;-99.240;2023-08-30T01:17:51;77614.34;;;31.99
73673;BMP280;61972;19.480;-99.240;2023-08-30T01:20:18;77613.81;;;31.98
73673;BMP280;61972;19.480;-99.240;2023-08-30T01:28:20;77622.94;;;32.02
73673;BMP280;61972;19.480;-99.240;2023-08-30T01:30:47;77620.41;;;32.04
73673;BMP280;61972;19.480;-99.240;2023-08-30T01:33:16;77627.34;;;32.06
73673;BMP280;61972;19.480;-99.240;2023-08-30T01:35:44;77630.66;;;32.09
73673;BMP280;61972;19.480;-99.240;2023-08-30T01:38:12;77642.88;;;32.10
73673;BMP280;61972;19.480;-99.240;2023-08-30T01:40:41;77637.06;;;32.10
73673;BMP280;61972;19.480;-99.240;2023-08-30T01:43:08;77647.63;;;32.10
73673;BMP280;61972;19.480;-99.240;2023-08-30T01:45:39;77647.63;;;32.10
73673;BMP280;61972;19.480;-99.240;2023-08-30T01:48:16;77657.09;;;32.09
73673;BMP280;61972;19.480;-99.240;2023-08-30T01:50:44;77664.47;;;32.08
73673;BMP280;61972;19.480;-99.240;2023-08-30T01:53:14;77665.47;;;32.07
73673;BMP280;61972;19.480;-99.240;2023-08-30T01:55:40;77676.06;;;32.07
73673;BMP280;61972;19.480;-99.240;2023-08-30T01:58:07;77684.94;;;32.05
73673;BMP280;61972;19.480;-99.240;2023-08-30T02:00:35;77680.66;;;32.04
73673;BMP280;61972;19.480;-99.240;2023-08-30T02:03:13;77691.69;;;32.02
73673;BMP280;61972;19.480;-99.240;2023-08-30T02:05:48;77697.97;;;32.00
73673;BMP280;61972;19.480;-99.240;2023-08-30T02:08:17;77697.84;;;31.98
73673;BMP280;61972;19.480;-99.240;2023-08-30T02:10:52;77707.31;;;31.97
73673;BMP280;61972;19.480;-99.240;2023-08-30T02:13:25;77706.66;;;31.94
73673;BMP280;61972;19.480;-99.240;2023-08-30T02:15:55;77715.56;;;31.92
73673;BMP280;61972;19.480;-99.240;2023-08-30T02:18:23;77737.16;;;31.90
73673;BMP280;61972;19.480;-99.240;2023-08-30T02:20:50;77747.63;;;31.87
73673;BMP280;61972;19.480;-99.240;2023-08-30T02:23:16;77765.00;;;31.86
73673;BMP280;61972;19.480;-99.240;2023-08-30T02:25:42;77768.66;;;31.85
73673;BMP280;61972;19.480;-99.240;2023-08-30T02:28:08;77779.13;;;31.82
73673;BMP280;61972;19.480;-99.240;2023-08-30T02:30:34;77780.66;;;31.81
73673;BMP280;61972;19.480;-99.240;2023-08-30T02:33:00;77784.81;;;31.80
73673;BMP280;61972;19.480;-99.240;2023-08-30T02:35:26;77792.06;;;31.77
73673;BMP280;61972;19.480;-99.240;2023-08-30T02:37:52;77783.50;;;31.74
73673;BMP280;61972;19.480;-99.240;2023-08-30T02:40:18;77789.19;;;31.72
73673;BMP280;61972;19.480;-99.240;2023-08-30T02:42:44;77792.84;;;31.70
73673;BMP280;61972;19.480;-99.240;2023-08-30T02:45:11;77796.47;;;31.69
73673;BMP280;61972;19.480;-99.240;2023-08-30T02:47:37;77795.78;;;31.66
73673;BMP280;61972;19.480;-99.240;2023-08-30T02:50:03;77803.06;;;31.63
73673;BMP280;61972;19.480;-99.240;2023-08-30T02:52:29;77801.41;;;31.61
73673;BMP280;61972;19.480;-99.240;2023-08-30T02:54:55;77815.03;;;31.59
73673;BMP280;61972;19.480;-99.240;2023-08-30T02:57:21;77812.28;;;31.57
73673;BMP280;61972;19.480;-99.240;2023-08-30T02:59:47;77814.38;;;31.56
73673;BMP280;61972;19.480;-99.240;2023-08-30T03:02:13;77809.50;;;31.54
73673;BMP280;61972;19.480;-99.240;2023-08-30T03:04:39;77816.31;;;31.53
73673;BMP280;61972;19.480;-99.240;2023-08-30T03:07:06;77816.78;;;31.51
73673;BMP280;61972;19.480;-99.240;2023-08-30T03:09:32;77817.75;;;31.49
73673;BMP280;61972;19.480;-99.240;2023-08-30T03:11:58;77819.28;;;31.48
73673;BMP280;61972;19.480;-99.240;2023-08-30T03:14:24;77812.34;;;31.47
73673;BMP280;61972;19.480;-99.240;2023-08-30T03:16:50;77819.16;;;31.46
73673;BMP280;61972;19.480;-99.240;2023-08-30T03:19:16;77822.78;;;31.44
73673;BMP280;61972;19.480;-99.240;2023-08-30T03:21:43;77828.06;;;31.44
73673;BMP280;61972;19.480;-99.240;2023-08-30T03:24:09;77829.06;;;31.43
73673;BMP280;61972;19.480;-99.240;2023-08-30T03:26:35;77834.34;;;31.43
73673;BMP280;61972;19.480;-99.240;2023-08-30T03:29:01;77836.44;;;31.42
73673;BMP280;61972;19.480;-99.240;2023-08-30T03:31:29;77833.78;;;31.42
73673;BMP280;61972;19.480;-99.240;2023-08-30T03:33:55;77840.19;;;31.43
73673;BMP280;61972;19.480;-99.240;2023-08-30T03:36:21;77841.84;;;31.45
73673;BMP280;61972;19.480;-99.240;2023-08-30T03:38:47;77854.59;;;31.47
73673;BMP280;61972;19.480;-99.240;2023-08-30T03:41:14;77855.28;;;31.50
73673;BMP280;61972;19.480;-99.240;2023-08-30T03:43:40;77846.38;;;31.51
73673;BMP280;61972;19.480;-99.240;2023-08-30T03:46:06;77861.78;;;31.54
73673;BMP280;61972;19.480;-99.240;2023-08-30T03:48:32;77852.88;;;31.55
73673;BMP280;61972;19.480;-99.240;2023-08-30T03:50:59;77851.91;;;31.57
73673;BMP280;61972;19.480;-99.240;2023-08-30T03:53:25;77854.09;;;31.59
73673;BMP280;61972;19.480;-99.240;2023-08-30T03:55:51;77854.78;;;31.62
73673;BMP280;61972;19.480;-99.240;2023-08-30T03:58:19;77853.81;;;31.63
73673;BMP280;61972;19.480;-99.240;2023-08-30T04:00:45;77853.38;;;31.65
73673;BMP280;61972;19.480;-99.240;2023-08-30T04:03:14;77847.09;;;31.67
73673;BMP280;61972;19.480;-99.240;2023-08-30T04:05:40;77849.75;;;31.67
73673;BMP280;61972;19.480;-99.240;2023-08-30T04:08:08;77850.72;;;31.65
73673;BMP280;61972;19.480;-99.240;2023-08-30T04:10:35;77857.56;;;31.64
73673;BMP280;61972;19.480;-99.240;2023-08-30T04:13:03;77851.72;;;31.64
73673;BMP280;61972;19.480;-99.240;2023-08-30T04:15:32;77850.06;;;31.62
73673;BMP280;61972;19.480;-99.240;2023-08-30T04:17:58;77851.59;;;31.61
73673;BMP280;61972;19.480;-99.240;2023-08-30T04:20:24;77854.09;;;31.59
73673;BMP280;61972;19.480;-99.240;2023-08-30T04:22:50;77862.47;;;31.57
73673;BMP280;61972;19.480;-99.240;2023-08-30T04:25:16;77868.19;;;31.55
73673;BMP280;61972;19.480;-99.240;2023-08-30T04:27:42;77872.38;;;31.54
73673;BMP280;61972;19.480;-99.240;2023-08-30T04:30:10;77873.78;;;31.50
73673;BMP280;61972;19.480;-99.240;2023-08-30T04:32:36;77880.03;;;31.48
73673;BMP280;61972;19.480;-99.240;2023-08-30T04:35:02;77877.41;;;31.48
73673;BMP280;61972;19.480;-99.240;2023-08-30T04:37:32;77876.28;;;31.47
73673;BMP280;61972;19.480;-99.240;2023-08-30T04:39:58;77884.22;;;31.47
73673;BMP280;61972;19.480;-99.240;2023-08-30T04:42:24;77879.94;;;31.46
73673;BMP280;61972;19.480;-99.240;2023-08-30T04:44:51;77880.34;;;31.44
73673;BMP280;61972;19.480;-99.240;2023-08-30T04:47:17;77882.44;;;31.43
73673;BMP280;61972;19.480;-99.240;2023-08-30T04:49:43;77885.50;;;31.41
73673;BMP280;61972;19.480;-99.240;2023-08-30T04:52:09;77889.69;;;31.40
73673;BMP280;61972;19.480;-99.240;2023-08-30T04:54:36;77893.84;;;31.39
73673;BMP280;61972;19.480;-99.240;2023-08-30T04:57:02;77885.94;;;31.39
73673;BMP280;61972;19.480;-99.240;2023-08-30T04:59:28;77893.19;;;31.36
73673;BMP280;61972;19.480;-99.240;2023-08-30T05:01:54;77893.06;;;31.34
73673;BMP280;61972;19.480;-99.240;2023-08-30T05:04:20;77882.38;;;31.31
73673;BMP280;61972;19.480;-99.240;2023-08-30T05:06:46;77890.56;;;31.26
73673;BMP280;61972;19.480;-99.240;2023-08-30T05:09:12;77881.44;;;31.23
73673;BMP280;61972;19.480;-99.240;2023-08-30T05:11:38;77889.78;;;31.21
73673;BMP280;61972;19.480;-99.240;2023-08-30T05:14:04;77892.84;;;31.19
73673;BMP280;61972;19.480;-99.240;2023-08-30T05:16:30;77890.66;;;31.17
73673;BMP280;61972;19.480;-99.240;2023-08-30T05:18:57;77901.22;;;31.17
73673;BMP280;61972;19.480;-99.240;2023-08-30T05:21:23;77901.75;;;31.17
73673;BMP280;61972;19.480;-99.240;2023-08-30T05:23:49;77899.69;;;31.18
73673;BMP280;61972;19.480;-99.240;2023-08-30T05:26:15;77902.84;;;31.18
73673;BMP280;61972;19.480;-99.240;2023-08-30T05:28:42;77903.41;;;31.19
73673;BMP280;61972;19.480;-99.240;2023-08-30T05:31:08;77905.38;;;31.16
73673;BMP280;61972;19.480;-99.240;2023-08-30T05:33:34;77899.53;;;31.15
73673;BMP280;61972;19.480;-99.240;2023-08-30T05:36:01;77898.44;;;31.14
73673;BMP280;61972;19.480;-99.240;2023-08-30T05:38:27;77902.59;;;31.13
73673;BMP280;61972;19.480;-99.240;2023-08-30T05:40:53;77903.59;;;31.11
73673;BMP280;61972;19.480;-99.240;2023-08-30T05:43:19;77898.72;;;31.09
73673;BMP280;61972;19.480;-99.240;2023-08-30T05:45:46;77891.22;;;31.07
73673;BMP280;61972;19.480;-99.240;2023-08-30T05:48:12;77894.28;;;31.05
73673;BMP280;61972;19.480;-99.240;2023-08-30T05:50:38;77886.81;;;31.03
73673;BMP280;61972;19.480;-99.240;2023-08-30T05:53:05;77889.31;;;31.01
73673;BMP280;61972;19.480;-99.240;2023-08-30T05:55:31;77886.03;;;30.98
73673;BMP280;61972;19.480;-99.240;2023-08-30T05:57:57;77879.06;;;30.96
73673;BMP280;61972;19.480;-99.240;2023-08-30T06:00:23;77875.72;;;30.93
73673;BMP280;61972;19.480;-99.240;2023-08-30T06:02:52;77877.69;;;30.90
73673;BMP280;61972;19.480;-99.240;2023-08-30T06:05:18;77876.59;;;30.89
73673;BMP280;61972;19.480;-99.240;2023-08-30T06:07:44;77873.28;;;30.86
73673;BMP280;61972;19.480;-99.240;2023-08-30T06:10:10;77874.81;;;30.85
73673;BMP280;61972;19.480;-99.240;2023-08-30T06:12:36;77878.97;;;30.84
73673;BMP280;61972;19.480;-99.240;2023-08-30T06:15:03;77874.69;;;30.82
73673;BMP280;61972;19.480;-99.240;2023-08-30T06:17:29;77875.09;;;30.80
73673;BMP280;61972;19.480;-99.240;2023-08-30T06:19:55;77870.81;;;30.79
73673;BMP280;61972;19.480;-99.240;2023-08-30T06:22:21;77873.88;;;30.77
73673;BMP280;61972;19.480;-99.240;2023-08-30T06:24:47;77871.66;;;30.74
73673;BMP280;61972;19.480;-99.240;2023-08-30T06:27:14;77865.81;;;30.74
73673;BMP280;61972;19.480;-99.240;2023-08-30T06:29:40;77866.78;;;30.72
73673;BMP280;61972;19.480;-99.240;2023-08-30T06:32:06;77872.50;;;30.70
73673;BMP280;61972;19.480;-99.240;2023-08-30T06:34:32;77865.56;;;30.69
73673;BMP280;61972;19.480;-99.240;2023-08-30T06:36:58;77869.72;;;30.68
73673;BMP280;61972;19.480;-99.240;2023-08-30T06:39:25;77869.63;;;30.65
73673;BMP280;61972;19.480;-99.240;2023-08-30T06:41:51;77865.28;;;30.64
73673;BMP280;61972;19.480;-99.240;2023-08-30T06:44:17;77866.28;;;30.62
73673;BMP280;61972;19.480;-99.240;2023-08-30T06:46:43;77853.53;;;30.60
73673;BMP280;61972;19.480;-99.240;2023-08-30T06:49:09;77853.53;;;30.60
73673;BMP280;61972;19.480;-99.240;2023-08-30T06:51:35;77857.25;;;30.61
73673;BMP280;61972;19.480;-99.240;2023-08-30T06:54:01;77855.31;;;30.64
73673;BMP280;61972;19.480;-99.240;2023-08-30T06:56:28;77848.88;;;30.73
73673;BMP280;61972;19.480;-99.240;2023-08-30T06:58:54;77857.31;;;30.83
73673;BMP280;61972;19.480;-99.240;2023-08-30T07:01:20;77854.34;;;30.98
73673;BMP280;61972;19.480;-99.240;2023-08-30T07:03:46;77862.56;;;31.15
73673;BMP280;61972;19.480;-99.240;2023-08-30T07:06:12;77858.59;;;31.31
73673;BMP280;61972;19.480;-99.240;2023-08-30T07:08:38;77857.94;;;31.50
73673;BMP280;61972;19.480;-99.240;2023-08-30T07:11:05;77850.28;;;31.67
73673;BMP280;61972;19.480;-99.240;2023-08-30T07:13:31;77846.94;;;31.86
73673;BMP280;61972;19.480;-99.240;2023-08-30T07:15:57;77849.44;;;32.06
73673;BMP280;61972;19.480;-99.240;2023-08-30T07:18:23;77845.50;;;32.24
73673;BMP280;61972;19.480;-99.240;2023-08-30T07:20:49;77849.41;;;32.40
73673;BMP280;61972;19.480;-99.240;2023-08-30T07:23:15;77853.72;;;32.54
73673;BMP280;61972;19.480;-99.240;2023-08-30T07:25:41;77857.47;;;32.67
73673;BMP280;61972;19.480;-99.240;2023-08-30T07:28:08;77851.63;;;32.79
73673;BMP280;61972;19.480;-99.240;2023-08-30T07:30:34;77849.97;;;32.90
73673;BMP280;61972;19.480;-99.240;2023-08-30T07:33:04;77840.81;;;32.99
73673;BMP280;61972;19.480;-99.240;2023-08-30T07:35:31;77851.53;;;33.01
73673;BMP280;61972;19.480;-99.240;2023-08-30T07:37:58;77856.59;;;32.96
73673;BMP280;61972;19.480;-99.240;2023-08-30T07:40:24;77854.50;;;32.84
73673;BMP280;61972;19.480;-99.240;2023-08-30T07:42:52;77856.94;;;32.67
73673;BMP280;61972;19.480;-99.240;2023-08-30T07:45:18;77857.69;;;32.48
73673;BMP280;61972;19.480;-99.240;2023-08-30T07:47:44;77858.28;;;32.26
73673;BMP280;61972;19.480;-99.240;2023-08-30T07:50:10;77857.38;;;32.06
73673;BMP280;61972;19.480;-99.240;2023-08-30T07:52:36;77855.31;;;31.84
73673;BMP280;61972;19.480;-99.240;2023-08-30T07:55:03;77851.72;;;31.64
73673;BMP280;61972;19.480;-99.240;2023-08-30T07:57:29;77849.63;;;31.42
73673;BMP280;61972;19.480;-99.240;2023-08-30T07:59:55;77851.28;;;31.22
73673;BMP280;61972;19.480;-99.240;2023-08-30T08:02:21;77847.22;;;31.03
73673;BMP280;61972;19.480;-99.240;2023-08-30T08:04:47;77853.25;;;30.87
73673;BMP280;61972;19.480;-99.240;2023-08-30T08:07:15;77855.53;;;30.69
73673;BMP280;61972;19.480;-99.240;2023-08-30T08:09:41;77849.50;;;30.54
73673;BMP280;61972;19.480;-99.240;2023-08-30T08:12:07;77848.72;;;30.39
73673;BMP280;61972;19.480;-99.240;2023-08-30T08:14:34;77842.78;;;30.26
73673;BMP280;61972;19.480;-99.240;2023-08-30T08:17:00;77841.03;;;30.12
73673;BMP280;61972;19.480;-99.240;2023-08-30T08:19:26;77834.53;;;29.99
73673;BMP280;61972;19.480;-99.240;2023-08-30T08:21:52;77834.41;;;29.86
73673;BMP280;61972;19.480;-99.240;2023-08-30T08:24:20;77835.94;;;29.75
73673;BMP280;61972;19.480;-99.240;2023-08-30T08:26:46;77836.34;;;29.64
73673;BMP280;61972;19.480;-99.240;2023-08-30T08:29:13;77829.44;;;29.52
73673;BMP280;61972;19.480;-99.240;2023-08-30T08:31:39;77824.72;;;29.43
73673;BMP280;61972;19.480;-99.240;2023-08-30T08:34:10;77832.09;;;29.33
73673;BMP280;61972;19.480;-99.240;2023-08-30T08:36:38;77825.81;;;29.25
73673;BMP280;61972;19.480;-99.240;2023-08-30T08:39:04;77817.94;;;29.15
73673;BMP280;61972;19.480;-99.240;2023-08-30T08:41:39;77816.94;;;29.07
73673;BMP280;61972;19.480;-99.240;2023-08-30T08:44:06;77813.34;;;28.98
73673;BMP280;61972;19.480;-99.240;2023-08-30T08:46:35;77821.34;;;28.91
73673;BMP280;61972;19.480;-99.240;2023-08-30T08:49:08;77816.25;;;28.84
73673;BMP280;61972;19.480;-99.240;2023-08-30T08:51:35;77820.63;;;28.78
73673;BMP280;61972;19.480;-99.240;2023-08-30T08:54:03;77815.50;;;28.71
73673;BMP280;61972;19.480;-99.240;2023-08-30T08:56:33;77815.22;;;28.66
73673;BMP280;61972;19.480;-99.240;2023-08-30T08:59:02;77819.63;;;28.60
73673;BMP280;61972;19.480;-99.240;2023-08-30T09:01:28;77814.09;;;28.55
73673;BMP280;61972;19.480;-99.240;2023-08-30T09:03:55;77815.47;;;28.52
73673;BMP280;61972;19.480;-99.240;2023-08-30T09:06:21;77805.19;;;28.47
73673;BMP280;61972;19.480;-99.240;2023-08-30T09:08:48;77806.56;;;28.43
73673;BMP280;61972;19.480;-99.240;2023-08-30T09:11:15;77803.66;;;28.38
73673;BMP280;61972;19.480;-99.240;2023-08-30T09:13:42;77798.66;;;28.34
73673;BMP280;61972;19.480;-99.240;2023-08-30T09:16:13;77796.84;;;28.30
73673;BMP280;61972;19.480;-99.240;2023-08-30T09:18:41;77794.06;;;28.27
73673;BMP280;61972;19.480;-99.240;2023-08-30T09:21:08;77797.66;;;28.25
73673;BMP280;61972;19.480;-99.240;2023-08-30T09:23:35;77802.38;;;28.25
73673;BMP280;61972;19.480;-99.240;2023-08-30T09:26:01;77800.13;;;28.23
73673;BMP280;61972;19.480;-99.240;2023-08-30T09:28:31;77797.38;;;28.20
73673;BMP280;61972;19.480;-99.240;2023-08-30T09:31:00;77797.22;;;28.18
73673;BMP280;61972;19.480;-99.240;2023-08-30T09:33:30;77791.28;;;28.15
73673;BMP280;61972;19.480;-99.240;2023-08-30T09:36:00;77786.25;;;28.10
73673;BMP280;61972;19.480;-99.240;2023-08-30T09:38:26;77777.13;;;28.06
73673;BMP280;61972;19.480;-99.240;2023-08-30T09:41:03;77781.66;;;28.03
73673;BMP280;61972;19.480;-99.240;2023-08-30T09:43:30;77784.00;;;27.98
73673;BMP280;61972;19.480;-99.240;2023-08-30T09:45:57;77784.81;;;27.94
73673;BMP280;61972;19.480;-99.240;2023-08-30T09:48:28;77782.03;;;27.92
73673;BMP280;61972;19.480;-99.240;2023-08-30T09:50:58;77772.91;;;27.88
73673;BMP280;61972;19.480;-99.240;2023-08-30T09:53:26;77767.91;;;27.83
73673;BMP280;61972;19.480;-99.240;2023-08-30T09:55:56;77767.59;;;27.78
73673;BMP280;61972;19.480;-99.240;2023-08-30T09:58:23;77770.63;;;27.76
73673;BMP280;61972;19.480;-99.240;2023-08-30T10:00:50;77773.66;;;27.74
73673;BMP280;61972;19.480;-99.240;2023-08-30T10:03:17;77778.09;;;27.78
73673;BMP280;61972;19.480;-99.240;2023-08-30T10:05:44;77775.38;;;27.85
73673;BMP280;61972;19.480;-99.240;2023-08-30T10:08:11;77764.13;;;27.99
73673;BMP280;61972;19.480;-99.240;2023-08-30T10:10:39;77772.06;;;28.19
73673;BMP280;61972;19.480;-99.240;2023-08-30T10:13:06;77765.63;;;28.44
73673;BMP280;61972;19.480;-99.240;2023-08-30T10:15:35;77772.06;;;28.75
73673;BMP280;61972;19.480;-99.240;2023-08-30T10:18:02;77768.50;;;29.06
73673;BMP280;61972;19.480;-99.240;2023-08-30T10:20:29;77763.47;;;29.40
73673;BMP280;61972;19.480;-99.240;2023-08-30T10:22:56;77755.81;;;29.74
73673;BMP280;61972;19.480;-99.240;2023-08-30T10:25:27;77757.53;;;30.08
73673;BMP280;61972;19.480;-99.240;2023-08-30T10:27:55;77758.63;;;30.41
73673;BMP280;61972;19.480;-99.240;2023-08-30T10:30:22;77758.09;;;30.72
73673;BMP280;61972;19.480;-99.240;2023-08-30T10:32:50;77759.00;;;31.02
73673;BMP280;61972;19.480;-99.240;2023-08-30T10:35:18;77766.19;;;31.31
73673;BMP280;61972;19.480;-99.240;2023-08-30T10:37:59;77760.78;;;31.63
73673;BMP280;61972;19.480;-99.240;2023-08-30T10:40:25;77769.44;;;31.90
73673;BMP280;61972;19.480;-99.240;2023-08-30T10:43:03;77768.59;;;32.19
73673;BMP280;61972;19.480;-99.240;2023-08-30T10:45:29;77766.06;;;32.46
73673;BMP280;61972;19.480;-99.240;2023-08-30T10:47:57;77764.31;;;32.67
73673;BMP280;61972;19.480;-99.240;2023-08-30T10:50:28;77768.69;;;32.83
73673;BMP280;61972;19.480;-99.240;2023-08-30T10:52:56;77771.66;;;32.91
73673;BMP280;61972;19.480;-99.240;2023-08-30T10:55:23;77770.53;;;32.90
73673;BMP280;61972;19.480;-99.240;2023-08-30T10:57:59;77770.13;;;32.80
73673;BMP280;61972;19.480;-99.240;2023-08-30T11:00:28;77776.97;;;32.66
73673;BMP280;61972;19.480;-99.240;2023-08-30T11:02:55;77775.19;;;32.50
73673;BMP280;61972;19.480;-99.240;2023-08-30T11:05:24;77780.72;;;32.31
73673;BMP280;61972;19.480;-99.240;2023-08-30T11:07:51;77787.75;;;32.10
73673;BMP280;61972;19.480;-99.240;2023-08-30T11:10:18;77787.94;;;31.90
73673;BMP280;61972;19.480;-99.240;2023-08-30T11:12:45;77784.38;;;31.70
73673;BMP280;61972;19.480;-99.240;2023-08-30T11:15:14;77773.41;;;31.50
73673;BMP280;61972;19.480;-99.240;2023-08-30T11:17:41;77776.75;;;31.31
73673;BMP280;61972;19.480;-99.240;2023-08-30T11:20:09;77773.13;;;31.10
73673;BMP280;61972;19.480;-99.240;2023-08-30T11:22:46;77777.41;;;30.90
73673;BMP280;61972;19.480;-99.240;2023-08-30T11:25:13;77776.13;;;30.74
73673;BMP280;61972;19.480;-99.240;2023-08-30T11:27:40;77773.16;;;30.57
73673;BMP280;61972;19.480;-99.240;2023-08-30T11:30:07;77775.03;;;30.41
73673;BMP280;61972;19.480;-99.240;2023-08-30T11:32:38;77768.97;;;30.26
73673;BMP280;61972;19.480;-99.240;2023-08-30T11:35:06;77783.47;;;30.10
73673;BMP280;61972;19.480;-99.240;2023-08-30T11:37:33;77781.16;;;29.95
73673;BMP280;61972;19.480;-99.240;2023-08-30T11:40:01;77784.63;;;29.82
73673;BMP280;61972;19.480;-99.240;2023-08-30T11:42:28;77794.50;;;29.69
73673;BMP280;61972;19.480;-99.240;2023-08-30T11:44:55;77791.19;;;29.56
73673;BMP280;61972;19.480;-99.240;2023-08-30T11:47:24;77795.38;;;29.45
73673;BMP280;61972;19.480;-99.240;2023-08-30T11:49:57;77797.88;;;29.33
73673;BMP280;61972;19.480;-99.240;2023-08-30T11:52:25;77798.94;;;29.24
73673;BMP280;61972;19.480;-99.240;2023-08-30T11:54:52;77803.09;;;29.13
73673;BMP280;61972;19.480;-99.240;2023-08-30T11:57:19;77806.84;;;29.05
73673;BMP280;61972;19.480;-99.240;2023-08-30T11:59:46;77804.22;;;28.95
73673;BMP280;61972;19.480;-99.240;2023-08-30T12:02:14;77805.84;;;28.87
73673;BMP280;61972;19.480;-99.240;2023-08-30T12:04:44;77812.19;;;28.78
73673;BMP280;61972;19.480;-99.240;2023-08-30T12:07:24;77810.63;;;28.69
73673;BMP280;61972;19.480;-99.240;2023-08-30T12:09:51;77811.34;;;28.62
73673;BMP280;61972;19.480;-99.240;2023-08-30T12:12:17;77815.03;;;28.54
73673;BMP280;61972;19.480;-99.240;2023-08-30T12:14:43;77806.31;;;28.48
73673;BMP280;61972;19.480;-99.240;2023-08-30T12:17:09;77809.03;;;28.41
73673;BMP280;61972;19.480;-99.240;2023-08-30T12:19:38;77807.66;;;28.35
73673;BMP280;61972;19.480;-99.240;2023-08-30T12:22:07;77809.44;;;28.29
73673;BMP280;61972;19.480;-99.240;2023-08-30T12:24:43;77807.47;;;28.22
73673;BMP280;61972;19.480;-99.240;2023-08-30T12:27:09;77805.09;;;28.18
73673;BMP280;61972;19.480;-99.240;2023-08-30T12:29:36;77804.25;;;28.12
73673;BMP280;61972;19.480;-99.240;2023-08-30T12:32:06;77811.25;;;28.06
73673;BMP280;61972;19.480;-99.240;2023-08-30T12:34:33;77812.09;;;28.02
73673;BMP280;61972;19.480;-99.240;2023-08-30T12:36:59;77816.47;;;27.97
73673;BMP280;61972;19.480;-99.240;2023-08-30T12:39:27;77815.22;;;27.93
73673;BMP280;61972;19.480;-99.240;2023-08-30T12:41:53;77814.91;;;27.88
73673;BMP280;61972;19.480;-99.240;2023-08-30T12:44:20;77815.75;;;27.84
73673;BMP280;61972;19.480;-99.240;2023-08-30T12:46:46;77819.16;;;27.80
73673;BMP280;61972;19.480;-99.240;2023-08-30T12:49:12;77813.19;;;27.77
73673;BMP280;61972;19.480;-99.240;2023-08-30T12:51:39;77810.25;;;27.72
73673;BMP280;61972;19.480;-99.240;2023-08-30T12:54:05;77817.44;;;27.68
73673;BMP280;61972;19.480;-99.240;2023-08-30T12:56:31;77817.28;;;27.66
73673;BMP280;61972;19.480;-99.240;2023-08-30T12:58:57;77818.66;;;27.62
73673;BMP280;61972;19.480;-99.240;2023-08-30T13:01:23;77826.34;;;27.60
73673;BMP280;61972;19.480;-99.240;2023-08-30T13:03:50;77836.72;;;27.57
73673;BMP280;61972;19.480;-99.240;2023-08-30T13:06:16;77845.94;;;27.54
73673;BMP280;61972;19.480;-99.240;2023-08-30T13:08:42;77843.56;;;27.49
73673;BMP280;61972;19.480;-99.240;2023-08-30T13:11:08;77845.31;;;27.43
73673;BMP280;61972;19.480;-99.240;2023-08-30T13:13:34;77842.94;;;27.39
73673;BMP280;61972;19.480;-99.240;2023-08-30T13:16:00;77841.50;;;27.32
73673;BMP280;61972;19.480;-99.240;2023-08-30T13:18:26;77843.41;;;27.29
73673;BMP280;61972;19.480;-99.240;2023-08-30T13:20:55;77845.72;;;27.24
73673;BMP280;61972;19.480;-99.240;2023-08-30T13:23:21;77857.03;;;27.20
73673;BMP280;61972;19.480;-99.240;2023-08-30T13:25:47;77857.97;;;27.19
73673;BMP280;61972;19.480;-99.240;2023-08-30T13:28:14;77858.38;;;27.17
73673;BMP280;61972;19.480;-99.240;2023-08-30T13:30:44;77866.41;;;27.19
73673;BMP280;61972;19.480;-99.240;2023-08-30T13:33:11;77866.00;;;27.21
73673;BMP280;61972;19.480;-99.240;2023-08-30T13:35:40;77873.06;;;27.25
73673;BMP280;61972;19.480;-99.240;2023-08-30T13:38:06;77871.88;;;27.31
73673;BMP280;61972;19.480;-99.240;2023-08-30T13:40:32;77888.50;;;27.37
73673;BMP280;61972;19.480;-99.240;2023-08-30T13:42:58;77884.28;;;27.45
73673;BMP280;61972;19.480;-99.240;2023-08-30T13:45:24;77890.00;;;27.53
73673;BMP280;61972;19.480;-99.240;2023-08-30T13:47:50;77889.34;;;27.60
73673;BMP280;61972;19.480;-99.240;2023-08-30T13:50:18;77889.84;;;27.67